aviador You're here:

GMTT Decoded Metar

TANGER in MOROCCO
Report Time2017-08-24 08:30:00
UTC Time2017-08-24 08:52:03
Flight Rules vfr VFR
Wind110° at 10 kt
W.Decomp.*RWY 10: 9.8 kt HW 2.1 kt RCW
W.Rank110° ranks 3
Current wind is above 110° avg. (9.0)
Visibility9999 m
Phenomena:N/A
Clouds:Few 016 Hf
Scattered 200 Hf
Expected CloudBase > 3,200 ft AGL from Temp-Dew spread
CeilingNone
Temp28°C (ISA +13)
Dew Point20°C (62% RH)
Heat Index29.7°C
QNH1014 hPa
Density Alt1,857 ft
Elevation69 ft
Report Wrong Elevation
Raw Report
GMTT 240830Z 11010KT 9999 FEW016 SCT200 28/20 Q1014 NOSIG=

Extra information for GMTT:More info

Metar Taf Metar & Taf Last 4 Metars F.Rules Stats Wind Profile Meteogram Temp Stats Airport Information Weather charts Add Link Nearby VenuesMetar ALERT Operation Metar Decoded Social comments